Time;durP1;ratioP1;P1;durP2;ratioP2;P2;SDS_P1;SDS_P2;PMS_P1;PMS_P2;Temp;Humidity;BMP_temperature;BMP_pressure;BME280_temperature;BME280_humidity;BME280_pressure;Samples;Min_cycle;Max_cycle;Signal;HPM_P1;HPM_P2
2022/02/23 00:00:32;;;;;;;6.15;1.40;;;;;;;18.59;47.72;102163.63;5015171;28;20022;-66
2022/02/23 00:02:58;;;;;;;8.38;1.58;;;;;;;18.57;47.57;102168.16;5014647;28;20474;-66
2022/02/23 00:05:24;;;;;;;5.38;1.45;;;;;;;18.52;47.54;102167.56;5015110;28;20458;-66
2022/02/23 00:07:50;;;;;;;7.25;1.50;;;;;;;18.53;47.72;102175.41;5015345;28;20378;-65
2022/02/23 00:10:15;;;;;;;7.22;1.77;;;;;;;18.49;47.60;102177.38;5014635;28;20022;-65
2022/02/23 00:12:40;;;;;;;6.13;1.63;;;;;;;18.48;47.66;102178.34;5015057;28;20026;-65
2022/02/23 00:15:06;;;;;;;4.83;1.50;;;;;;;18.47;47.32;102189.84;5015253;28;20048;-65
2022/02/23 00:17:32;;;;;;;6.60;1.60;;;;;;;18.45;47.60;102191.75;5013293;28;20358;-66
2022/02/23 00:19:57;;;;;;;6.82;1.40;;;;;;;18.44;47.57;102186.56;5015425;28;20029;-66
2022/02/23 00:22:23;;;;;;;4.93;1.30;;;;;;;18.41;47.43;102192.03;5014820;28;20026;-65
2022/02/23 00:24:49;;;;;;;5.85;1.27;;;;;;;18.39;47.51;102192.13;5014351;28;20108;-65
2022/02/23 00:27:14;;;;;;;7.03;1.83;;;;;;;18.39;47.72;102191.25;5015051;28;20018;-65
2022/02/23 00:29:40;;;;;;;6.28;1.67;;;;;;;18.38;47.47;102192.22;5014760;28;20041;-66
2022/02/23 00:32:06;;;;;;;7.38;1.75;;;;;;;18.31;47.35;102187.28;5014095;28;20101;-65
2022/02/23 00:34:32;;;;;;;6.78;1.52;;;;;;;18.34;47.49;102198.59;5014856;28;20022;-66
2022/02/23 00:36:57;;;;;;;6.72;1.75;;;;;;;18.30;47.43;102195.31;5014762;28;20458;-65
2022/02/23 00:39:25;;;;;;;9.25;1.67;;;;;;;18.28;47.50;102195.41;5013849;28;20034;-66
2022/02/23 00:41:52;;;;;;;4.40;1.40;;;;;;;18.27;47.46;102198.97;5014909;28;20033;-66
2022/02/23 00:44:18;;;;;;;8.70;1.65;;;;;;;18.27;47.60;102203.41;5014752;28;20022;-65
2022/02/23 00:46:43;;;;;;;5.57;1.40;;;;;;;18.25;47.36;102215.84;5013659;28;20022;-65
2022/02/23 00:49:09;;;;;;;5.95;1.90;;;;;;;18.24;47.49;102219.41;5014599;28;20030;-65
2022/02/23 00:51:34;;;;;;;7.78;1.92;;;;;;;18.21;47.42;102217.81;5014498;28;20057;-65
2022/02/23 00:53:59;;;;;;;7.63;1.90;;;;;;;18.19;47.25;102222.34;5013874;28;20485;-65
2022/02/23 00:56:25;;;;;;;5.72;1.27;;;;;;;18.17;46.98;102218.94;5014212;28;20271;-65
2022/02/23 00:58:50;;;;;;;6.82;1.73;;;;;;;18.16;47.12;102219.03;5014291;28;20424;-65
2022/02/23 01:01:16;;;;;;;7.15;1.35;;;;;;;18.15;47.28;102223.47;5013468;28;20058;-65
2022/02/23 01:03:41;;;;;;;5.00;1.27;;;;;;;18.13;47.15;102225.34;5014226;28;20022;-65
2022/02/23 01:06:07;;;;;;;6.03;1.70;;;;;;;18.10;47.36;102225.50;5014062;28;20444;-65
2022/02/23 01:08:32;;;;;;;4.55;1.20;;;;;;;18.09;47.20;102227.31;5013615;28;20026;-66
2022/02/23 01:10:57;;;;;;;7.30;1.45;;;;;;;18.07;47.24;102237.13;5014391;28;20033;-65
2022/02/23 01:13:23;;;;;;;6.13;1.30;;;;;;;18.06;47.19;102231.94;5013098;28;20516;-66
2022/02/23 01:15:49;;;;;;;7.05;1.70;;;;;;;18.04;47.22;102242.56;5014094;28;20048;-65
2022/02/23 01:18:14;;;;;;;8.50;2.00;;;;;;;18.02;47.27;102240.94;5014256;28;20037;-65
2022/02/23 01:20:39;;;;;;;5.47;1.30;;;;;;;17.99;47.36;102239.38;5013000;28;20355;-65
2022/02/23 01:23:05;;;;;;;5.78;1.30;;;;;;;17.97;47.57;102238.59;5014045;28;20026;-65
2022/02/23 01:25:36;;;;;;;5.95;1.48;;;;;;;17.96;47.17;102244.81;5013494;28;20171;-65
2022/02/23 01:28:04;;;;;;;3.90;1.30;;;;;;;17.94;47.18;102254.59;5013182;28;20033;-65
2022/02/23 01:30:33;;;;;;;6.43;1.55;;;;;;;17.94;47.19;102254.59;5013271;28;20033;-65
2022/02/23 01:32:58;;;;;;;7.85;1.70;;;;;;;17.91;47.13;102253.00;5013953;28;20046;-65
2022/02/23 01:35:24;;;;;;;4.13;1.15;;;;;;;17.91;47.22;102254.75;5012768;28;20057;-65
2022/02/23 01:37:52;;;;;;;7.10;1.70;;;;;;;17.87;47.09;102254.06;5014204;28;20476;-65
2022/02/23 01:40:18;;;;;;;6.13;1.63;;;;;;;17.87;47.32;102251.44;5013641;28;20393;-65
2022/02/23 01:42:43;;;;;;;6.88;1.48;;;;;;;17.86;47.01;102246.25;5012538;28;20032;-65
2022/02/23 01:45:08;;;;;;;7.03;1.60;;;;;;;17.85;47.27;102252.44;5013635;28;20084;-65
2022/02/23 01:47:34;;;;;;;5.40;1.20;;;;;;;17.83;47.10;102254.31;5013465;28;20259;-65
2022/02/23 01:49:59;;;;;;;8.15;2.15;;;;;;;17.81;47.08;102251.78;5013030;28;20105;-65
2022/02/23 01:52:25;;;;;;;6.90;1.55;;;;;;;17.80;47.40;102257.13;5013263;28;20457;-65
2022/02/23 01:54:54;;;;;;;5.00;1.38;;;;;;;17.80;47.07;102258.00;5013409;28;20052;-65
2022/02/23 01:57:21;;;;;;;6.20;1.30;;;;;;;17.77;47.20;102264.31;5012268;28;20018;-65
2022/02/23 01:59:46;;;;;;;5.60;1.83;;;;;;;17.75;47.31;102268.81;5013293;28;20018;-65
2022/02/23 02:02:12;;;;;;;4.65;1.50;;;;;;;17.74;47.26;102266.28;5013364;28;20041;-65
2022/02/23 02:04:37;;;;;;;5.10;1.73;;;;;;;17.73;47.16;102264.56;5012494;28;20076;-65
2022/02/23 02:07:02;;;;;;;6.90;1.55;;;;;;;17.73;47.32;102267.19;5013233;28;20477;-65
2022/02/23 02:09:28;;;;;;;7.88;1.60;;;;;;;17.72;47.23;102276.03;5012104;28;20033;-65
2022/02/23 02:11:56;;;;;;;6.63;1.50;;;;;;;17.70;46.90;102272.63;5013190;28;20034;-65
2022/02/23 02:14:21;;;;;;;5.78;1.50;;;;;;;17.67;46.92;102281.56;5012872;28;20030;-65
2022/02/23 02:16:47;;;;;;;6.32;1.60;;;;;;;17.68;47.34;102285.06;5012516;28;20399;-65
2022/02/23 02:19:12;;;;;;;5.85;1.55;;;;;;;17.65;47.07;102280.81;5013415;28;20346;-65
2022/02/23 02:22:02;;;;;;;5.60;1.93;;;;;;;17.64;46.83;102287.03;5012911;28;20033;-65
2022/02/23 02:24:30;;;;;;;6.97;1.73;;;;;;;17.65;47.08;102290.53;5012022;28;20287;-65
2022/02/23 02:26:57;;;;;;;6.82;1.80;;;;;;;17.62;47.30;102294.16;5013200;28;20022;-65
2022/02/23 02:29:24;;;;;;;7.25;1.73;;;;;;;17.66;47.18;102302.78;5012882;28;20026;-65
2022/02/23 02:31:49;;;;;;;5.45;1.30;;;;;;;17.65;47.75;102299.25;5012332;28;20049;-65
2022/02/23 02:34:18;;;;;;;6.20;1.60;;;;;;;17.72;47.32;102299.75;5013200;28;20480;-65
2022/02/23 02:36:44;;;;;;;5.25;1.60;;;;;;;17.75;47.05;102303.09;5012966;28;20080;-65
2022/02/23 02:39:10;;;;;;;6.50;1.50;;;;;;;17.76;46.90;102296.88;5012090;28;20416;-65
2022/02/23 02:41:36;;;;;;;8.25;1.58;;;;;;;17.81;46.85;102303.69;5014531;28;20473;-65
2022/02/23 02:44:03;;;;;;;8.50;1.90;;;;;;;17.84;46.87;102306.16;5016811;28;20033;-65
2022/02/23 02:46:29;;;;;;;8.82;1.52;;;;;;;17.84;46.78;102312.25;5015689;28;20026;-65
2022/02/23 02:48:55;;;;;;;7.75;1.63;;;;;;;17.86;46.82;102315.66;5016853;28;20381;-65
2022/02/23 02:51:21;;;;;;;6.15;1.80;;;;;;;17.87;46.92;102316.53;5016629;28;20029;-65
2022/02/23 02:53:47;;;;;;;6.78;1.67;;;;;;;17.88;46.38;102313.84;5015884;28;20036;-65
2022/02/23 02:56:12;;;;;;;7.65;1.90;;;;;;;17.88;46.59;102313.84;5016903;28;20109;-65
2022/02/23 02:58:37;;;;;;;5.85;1.42;;;;;;;17.87;46.49;102312.09;5016315;28;20080;-65
2022/02/23 03:01:03;;;;;;;6.53;1.65;;;;;;;17.87;46.44;102308.59;5015820;28;20030;-65
2022/02/23 03:03:29;;;;;;;5.85;1.38;;;;;;;17.89;46.30;102312.88;5016421;28;20112;-65
2022/02/23 03:05:54;;;;;;;9.10;1.83;;;;;;;17.89;46.26;102312.03;5015573;28;20553;-65
2022/02/23 03:08:19;;;;;;;4.95;1.33;;;;;;;17.88;46.06;102320.88;5016396;28;20270;-65
2022/02/23 03:10:44;;;;;;;6.37;1.63;;;;;;;17.86;45.97;102315.66;5016498;28;20446;-65
2022/02/23 03:13:10;;;;;;;5.23;1.50;;;;;;;17.87;46.11;102319.16;5015740;28;20266;-65
2022/02/23 03:15:36;;;;;;;4.70;1.23;;;;;;;17.89;45.87;102333.13;5016313;28;20281;-65
2022/02/23 03:18:02;;;;;;;8.13;1.58;;;;;;;17.88;46.05;102331.41;5016273;28;20084;-65
2022/02/23 03:20:27;;;;;;;5.72;1.20;;;;;;;17.87;46.09;102333.19;5015322;28;20030;-65
2022/02/23 03:22:52;;;;;;;6.75;1.73;;;;;;;17.86;46.19;102334.13;5016133;28;20025;-65
2022/02/23 03:25:18;;;;;;;5.00;1.23;;;;;;;17.88;46.09;102336.69;5016475;28;20034;-64
2022/02/23 03:27:43;;;;;;;8.17;1.80;;;;;;;17.88;46.33;102341.97;5015311;28;20682;-65
2022/02/23 03:30:08;;;;;;;5.10;1.40;;;;;;;17.89;46.22;102347.16;5016222;28;20268;-65
2022/02/23 03:32:34;;;;;;;5.65;1.48;;;;;;;17.90;45.96;102348.03;5015778;28;20109;-65
2022/02/23 03:35:00;;;;;;;7.88;1.55;;;;;;;17.92;45.82;102348.78;5015172;28;20069;-65
2022/02/23 03:37:25;;;;;;;5.78;1.42;;;;;;;17.92;46.04;102348.78;5015570;28;20053;-65
2022/02/23 03:39:50;;;;;;;7.82;1.65;;;;;;;17.91;45.68;102352.34;5016073;28;20029;-65
2022/02/23 03:42:17;;;;;;;6.43;1.42;;;;;;;17.92;45.88;102352.25;5015214;28;20033;-64
2022/02/23 03:44:42;;;;;;;8.27;1.83;;;;;;;17.92;45.72;102352.25;5015722;28;20036;-65
2022/02/23 03:47:08;;;;;;;6.95;1.73;;;;;;;17.92;46.03;102343.50;5015867;28;20374;-65
2022/02/23 03:49:34;;;;;;;6.70;1.75;;;;;;;17.91;45.82;102347.94;5014762;28;20054;-65
2022/02/23 03:51:59;;;;;;;5.97;1.55;;;;;;;17.89;45.44;102349.78;5015146;28;20049;-65
2022/02/23 03:54:24;;;;;;;8.65;1.80;;;;;;;17.92;45.65;102354.06;5014786;28;20026;-65
2022/02/23 03:56:50;;;;;;;7.33;1.47;;;;;;;17.92;45.48;102362.81;5014984;28;20053;-65
2022/02/23 03:59:21;;;;;;;7.37;1.77;;;;;;;17.91;45.66;102358.50;5015565;28;20303;-65
2022/02/23 04:01:47;;;;;;;5.63;1.50;;;;;;;17.91;45.32;102366.41;5015492;28;20310;-65
2022/02/23 04:04:13;;;;;;;6.07;1.30;;;;;;;17.89;45.74;102365.63;5014822;28;20468;-65
2022/02/23 04:06:38;;;;;;;6.25;1.60;;;;;;;17.90;45.11;102369.13;5014998;28;20049;-65
2022/02/23 04:09:05;;;;;;;6.47;1.70;;;;;;;17.90;45.48;102371.78;5014910;28;20299;-65
2022/02/23 04:11:31;;;;;;;4.70;1.20;;;;;;;17.88;45.06;102376.25;5015309;28;20049;-65
2022/02/23 04:13:56;;;;;;;5.93;1.50;;;;;;;17.86;45.47;102384.22;5015352;28;20068;-65
2022/02/23 04:16:21;;;;;;;6.13;1.38;;;;;;;17.87;45.32;102382.47;5014390;28;20550;-65
2022/02/23 04:18:47;;;;;;;7.40;1.50;;;;;;;17.85;45.50;102389.59;5015182;28;20369;-65
2022/02/23 04:21:12;;;;;;;6.45;1.50;;;;;;;17.86;45.56;102388.66;5015088;28;20362;-65
2022/02/23 04:23:38;;;;;;;6.38;1.52;;;;;;;17.87;45.58;102395.66;5014292;28;20377;-64
2022/02/23 04:26:06;;;;;;;6.60;1.40;;;;;;;17.88;45.33;102397.34;5014965;28;20528;-65
2022/02/23 04:28:31;;;;;;;6.57;1.52;;;;;;;17.87;45.50;102404.41;5014954;28;20080;-65
2022/02/23 04:30:58;;;;;;;8.20;1.88;;;;;;;17.86;45.35;102399.22;5014096;28;20034;-65
2022/02/23 04:33:23;;;;;;;7.05;1.80;;;;;;;17.87;45.27;102401.75;5014655;28;20496;-65
2022/02/23 04:35:49;;;;;;;6.57;1.40;;;;;;;17.89;45.46;102405.19;5014900;28;20064;-65
2022/02/23 04:38:15;;;;;;;8.35;1.80;;;;;;;17.89;45.29;102410.47;5013882;28;20465;-65
2022/02/23 04:40:43;;;;;;;6.28;1.70;;;;;;;17.91;45.11;102413.00;5014366;28;20473;-65
2022/02/23 04:43:14;;;;;;;6.50;1.60;;;;;;;17.89;45.18;102409.63;5014734;28;20026;-65
2022/02/23 04:45:40;;;;;;;8.50;1.50;;;;;;;17.86;45.30;102404.47;5013627;28;20026;-65
2022/02/23 04:48:05;;;;;;;5.20;1.45;;;;;;;17.89;45.14;102418.38;5014527;28;20033;-65
2022/02/23 04:50:31;;;;;;;7.47;1.70;;;;;;;17.88;45.00;102421.09;5014090;28;20026;-65
2022/02/23 04:52:56;;;;;;;6.68;1.40;;;;;;;17.87;45.28;102414.09;5013696;28;20052;-65
2022/02/23 04:55:21;;;;;;;5.35;1.40;;;;;;;17.85;45.28;102416.81;5014410;28;20040;-65
2022/02/23 04:57:46;;;;;;;6.18;1.55;;;;;;;17.85;44.89;102418.59;5014577;28;20424;-65
2022/02/23 05:00:13;;;;;;;7.60;1.63;;;;;;;17.85;44.82;102422.09;5013701;28;20026;-65
2022/02/23 05:02:38;;;;;;;7.68;1.83;;;;;;;17.86;45.05;102417.66;5013866;28;20279;-65
2022/02/23 05:05:04;;;;;;;8.57;1.83;;;;;;;17.85;45.16;102414.19;5013895;28;20041;-65
2022/02/23 05:07:29;;;;;;;5.93;1.58;;;;;;;17.84;45.21;102412.47;5013120;28;20038;-65
2022/02/23 05:09:56;;;;;;;6.03;1.55;;;;;;;17.88;45.58;102421.09;5014166;28;20030;-65
2022/02/23 05:12:21;;;;;;;5.70;1.60;;;;;;;17.89;45.28;102422.81;5013121;28;20041;-65
2022/02/23 05:14:46;;;;;;;6.78;1.58;;;;;;;17.87;45.43;102422.84;5014086;28;20476;-65
2022/02/23 05:17:14;;;;;;;4.65;1.55;;;;;;;17.87;45.39;102419.38;5013981;28;20358;-65
2022/02/23 05:19:46;;;;;;;6.50;2.15;;;;;;;17.89;44.91;102428.91;5012786;28;20026;-65
2022/02/23 05:22:11;;;;;;;7.53;1.63;;;;;;;17.89;44.97;102433.34;5014091;28;20029;-65
2022/02/23 05:24:38;;;;;;;8.25;1.80;;;;;;;17.87;44.99;102427.28;5013737;28;20024;-65
2022/02/23 05:27:04;;;;;;;5.78;1.75;;;;;;;17.88;44.97;102431.66;5013113;28;20018;-65
2022/02/23 05:29:32;;;;;;;6.78;1.40;;;;;;;17.88;44.79;102436.91;5013526;28;20022;-65
2022/02/23 05:31:58;;;;;;;6.15;1.25;;;;;;;17.87;45.08;102435.22;5013782;28;20052;-65
2022/02/23 05:34:24;;;;;;;5.95;1.40;;;;;;;17.87;45.42;102429.94;5012887;28;20054;-65
2022/02/23 05:36:50;;;;;;;5.72;1.50;;;;;;;17.89;45.45;102438.63;5013692;28;20485;-65
2022/02/23 05:39:16;;;;;;;5.22;1.38;;;;;;;17.90;45.54;102430.63;5013514;28;20429;-65
2022/02/23 05:41:42;;;;;;;6.18;1.40;;;;;;;17.91;45.12;102436.75;5012509;28;20026;-65
2022/02/23 05:44:07;;;;;;;7.28;1.50;;;;;;;17.90;45.07;102438.56;5013737;28;20114;-65
2022/02/23 05:46:33;;;;;;;6.22;1.55;;;;;;;17.92;44.80;102441.09;5013363;28;20520;-65
2022/02/23 05:48:58;;;;;;;5.60;1.50;;;;;;;17.92;45.02;102430.56;5012665;28;20374;-66
2022/02/23 05:51:28;;;;;;;6.97;1.47;;;;;;;17.91;45.02;102439.38;5013322;28;20072;-65
2022/02/23 05:53:53;;;;;;;6.95;1.30;;;;;;;17.91;45.06;102442.03;5013580;28;20279;-65
2022/02/23 05:56:18;;;;;;;5.53;1.30;;;;;;;17.90;44.93;102443.81;5012620;28;20369;-65
2022/02/23 05:58:44;;;;;;;8.70;1.80;;;;;;;17.89;44.63;102439.47;5013126;28;20061;-65
2022/02/23 06:01:12;;;;;;;7.00;1.40;;;;;;;17.89;44.65;102444.75;5013322;28;20030;-65
2022/02/23 06:03:37;;;;;;;4.65;1.73;;;;;;;17.89;44.69;102446.53;5012410;28;20186;-65
2022/02/23 06:06:03;;;;;;;4.57;1.33;;;;;;;17.90;44.93;102441.19;5013147;28;20169;-63
2022/02/23 06:08:28;;;;;;;5.63;1.67;;;;;;;17.92;45.95;102447.22;5013030;28;20040;-64
2022/02/23 06:10:53;;;;;;;6.68;1.80;;;;;;;17.95;46.33;102447.06;5012418;28;20465;-64
2022/02/23 06:13:19;;;;;;;6.63;1.40;;;;;;;17.98;46.73;102439.94;5013196;28;20026;-65
2022/02/23 06:15:44;;;;;;;6.78;1.63;;;;;;;18.02;47.33;102452.84;5011534;28;20271;-64
2022/02/23 06:18:09;;;;;;;8.18;2.35;;;;;;;18.05;47.12;102449.19;5013249;28;20428;-64
2022/02/23 06:20:34;;;;;;;6.37;1.43;;;;;;;18.07;47.59;102448.19;5012892;28;20022;-64
2022/02/23 06:23:00;;;;;;;8.27;1.60;;;;;;;18.11;47.62;102454.13;5012192;28;20295;-64
2022/02/23 06:25:25;;;;;;;5.83;1.90;;;;;;;18.14;47.98;102459.22;5012724;28;20420;-65
2022/02/23 06:27:50;;;;;;;13.27;2.35;;;;;;;18.16;47.93;102460.00;5012858;28;20279;-64
2022/02/23 06:30:15;;;;;;;7.40;1.63;;;;;;;18.19;47.88;102464.25;5012080;28;20030;-64
2022/02/23 06:32:43;;;;;;;7.50;1.50;;;;;;;18.19;47.53;102456.34;5012835;28;20306;-64
2022/02/23 06:35:09;;;;;;;5.78;1.55;;;;;;;18.21;47.30;102463.22;5013049;28;20287;-64
2022/02/23 06:37:38;;;;;;;6.78;1.85;;;;;;;18.24;47.60;102464.84;5011690;28;20087;-64
2022/02/23 06:40:07;;;;;;;8.27;1.73;;;;;;;18.25;47.54;102466.56;5012943;28;20131;-65
2022/02/23 06:42:32;;;;;;;6.43;1.50;;;;;;;18.27;47.60;102473.44;5012315;28;20520;-65
2022/02/23 06:44:58;;;;;;;7.03;1.80;;;;;;;18.27;47.41;102467.31;5011954;28;20028;-65
2022/02/23 06:47:23;;;;;;;4.97;1.67;;;;;;;18.30;47.57;102475.91;5012726;28;20037;-65
2022/02/23 06:49:49;;;;;;;5.30;1.58;;;;;;;18.30;47.36;102478.53;5012844;28;20025;-65
2022/02/23 06:52:18;;;;;;;10.30;1.75;;;;;;;18.32;47.03;102475.81;5012021;28;20033;-65
2022/02/23 06:54:46;;;;;;;7.97;1.92;;;;;;;18.31;46.96;102477.59;5012543;28;20080;-66
2022/02/23 06:57:12;;;;;;;6.55;1.83;;;;;;;18.34;47.01;102473.09;5012507;28;20024;-65
2022/02/23 06:59:39;;;;;;;6.90;1.50;;;;;;;18.35;47.71;102475.66;5011435;28;20037;-66
2022/02/23 07:02:04;;;;;;;10.45;1.98;;;;;;;18.36;47.81;102474.72;5012458;28;20404;-66
2022/02/23 07:04:30;;;;;;;7.30;1.50;;;;;;;18.38;47.82;102482.56;5012443;28;20072;-64
2022/02/23 07:06:55;;;;;;;6.25;1.80;;;;;;;18.38;47.88;102475.47;5011646;28;20042;-64
2022/02/23 07:09:20;;;;;;;5.90;1.70;;;;;;;18.39;47.80;102474.53;5012363;28;20026;-64
2022/02/23 07:11:45;;;;;;;5.47;1.63;;;;;;;18.42;47.85;102479.66;5012508;28;20711;-64
2022/02/23 07:14:14;;;;;;;7.35;1.85;;;;;;;18.42;47.46;102474.38;5011645;28;20022;-64
2022/02/23 07:16:39;;;;;;;8.63;1.52;;;;;;;18.43;47.57;102481.34;5012429;28;20029;-64
2022/02/23 07:19:06;;;;;;;8.45;1.70;;;;;;;18.44;47.45;102484.84;5011891;28;20033;-64
2022/02/23 07:21:33;;;;;;;6.53;1.40;;;;;;;18.44;47.18;102479.56;5012351;28;20034;-64
2022/02/23 07:23:59;;;;;;;7.20;1.67;;;;;;;18.46;47.69;102482.97;5012585;28;20048;-64
2022/02/23 07:26:26;;;;;;;9.00;1.95;;;;;;;18.47;47.81;102495.22;5011420;28;20022;-65
2022/02/23 07:28:51;;;;;;;7.57;1.60;;;;;;;18.51;47.76;102495.91;5016181;28;20045;-64
2022/02/23 07:31:21;;;;;;;8.13;1.65;;;;;;;18.52;47.60;102497.59;5016234;28;20022;-64
2022/02/23 07:33:47;;;;;;;8.40;2.13;;;;;;;18.51;44.04;102502.03;5016037;28;20042;-64
2022/02/23 07:36:13;;;;;;;9.00;2.05;;;;;;;18.51;45.50;102507.31;5016248;28;20679;-67
2022/02/23 07:38:40;;;;;;;6.18;1.70;;;;;;;18.54;46.25;102509.78;5015707;28;20049;-66
2022/02/23 07:41:06;;;;;;;5.18;1.48;;;;;;;18.57;46.62;102503.47;5015124;28;20108;-67
2022/02/23 07:43:33;;;;;;;5.95;1.60;;;;;;;18.61;46.95;102515.53;5015508;28;20539;-65
2022/02/23 07:45:59;;;;;;;6.63;1.55;;;;;;;18.64;46.71;102510.97;5015977;28;20021;-67
2022/02/23 07:48:25;;;;;;;5.88;1.67;;;;;;;18.68;46.40;102509.00;5014774;28;20358;-70
2022/02/23 07:50:50;;;;;;;5.85;2.03;;;;;;;18.71;46.68;102505.31;5015998;28;20036;-67
2022/02/23 07:53:15;;;;;;;7.10;2.07;;;;;;;18.74;46.67;102515.69;5015846;28;20029;-67
2022/02/23 07:55:43;;;;;;;7.18;1.63;;;;;;;18.76;46.70;102516.47;5014642;28;20734;-67
2022/02/23 07:58:09;;;;;;;5.00;1.33;;;;;;;18.78;46.93;102520.72;5015695;28;20042;-68
2022/02/23 08:00:35;;;;;;;7.10;2.20;;;;;;;18.80;46.76;102520.63;5015473;28;20024;-69
2022/02/23 08:03:00;;;;;;;8.68;1.83;;;;;;;18.83;46.82;102523.97;5014635;28;20480;-68
2022/02/23 08:05:26;;;;;;;6.95;1.45;;;;;;;18.84;46.84;102527.47;5015007;28;20025;-69
2022/02/23 08:07:52;;;;;;;4.65;1.42;;;;;;;18.86;46.63;102525.59;5015531;28;20045;-68
2022/02/23 08:10:26;;;;;;;5.55;1.23;;;;;;;18.91;46.80;102533.25;5015090;28;20017;-69
2022/02/23 08:12:55;;;;;;;7.65;2.45;;;;;;;18.90;46.79;102524.47;5015467;28;20066;-68
2022/02/23 08:20:49;;;;;;;6.63;1.63;;;;;;;18.95;46.88;102521.56;5015053;28;20063;-67
2022/02/23 08:23:17;;;;;;;6.80;1.63;;;;;;;18.97;47.24;102525.81;5014689;28;20022;-69
2022/02/23 08:25:43;;;;;;;5.43;1.50;;;;;;;18.98;46.63;102518.75;5014974;28;20101;-69
2022/02/23 08:28:08;;;;;;;6.03;1.55;;;;;;;18.99;47.10;102526.59;5015189;28;20120;-68
2022/02/23 08:30:34;;;;;;;6.43;1.70;;;;;;;19.00;47.06;102519.50;5014124;28;20022;-67
2022/02/23 08:33:02;;;;;;;7.05;1.70;;;;;;;18.99;47.05;102523.97;5014959;28;20385;-65
2022/02/23 08:35:28;;;;;;;4.70;1.35;;;;;;;19.03;47.04;102524.63;5014865;28;20065;-67
2022/02/23 08:37:53;;;;;;;4.88;1.45;;;;;;;19.05;46.99;102521.88;5014476;28;20049;-68
2022/02/23 08:40:19;;;;;;;4.87;1.60;;;;;;;19.06;47.09;102520.94;5014035;28;20026;-67
2022/02/23 08:42:44;;;;;;;4.82;1.48;;;;;;;19.07;47.36;102525.28;5014877;28;20421;-68
2022/02/23 08:45:09;;;;;;;7.18;2.10;;;;;;;19.08;47.35;102525.19;5014112;28;20022;-65
2022/02/23 08:47:34;;;;;;;6.22;1.50;;;;;;;19.07;46.95;102531.41;5014410;28;20159;-67
2022/02/23 08:50:00;;;;;;;6.28;1.77;;;;;;;19.07;47.30;102527.91;5014680;28;20048;-67
2022/02/23 08:52:25;;;;;;;6.15;1.65;;;;;;;19.10;47.36;102525.09;5013541;28;20025;-67
2022/02/23 08:54:51;;;;;;;9.57;1.80;;;;;;;19.10;47.43;102527.75;5014619;28;20037;-66
2022/02/23 08:57:16;;;;;;;9.23;1.90;;;;;;;19.14;47.61;102537.22;5014591;28;20769;-67
2022/02/23 08:59:41;;;;;;;6.95;1.80;;;;;;;19.16;47.45;102533.50;5013494;28;20263;-66
2022/02/23 09:02:06;;;;;;;8.07;1.80;;;;;;;19.18;47.74;102529.00;5014372;28;20497;-64
2022/02/23 09:04:32;;;;;;;8.40;1.90;;;;;;;19.17;46.71;102532.59;5013359;28;20033;-65
2022/02/23 09:06:57;;;;;;;6.77;1.97;;;;;;;19.12;46.95;102532.00;5014137;28;20805;-68
2022/02/23 09:09:23;;;;;;;6.05;1.67;;;;;;;19.14;47.54;102535.41;5014121;28;20635;-66
2022/02/23 09:11:48;;;;;;;6.05;1.70;;;;;;;19.14;47.34;102532.75;5013414;28;20032;-67
2022/02/23 09:14:14;;;;;;;6.38;1.60;;;;;;;19.14;47.27;102530.13;5014264;28;20025;-64
2022/02/23 09:16:40;;;;;;;7.60;1.67;;;;;;;19.13;47.47;102531.03;5014017;28;20057;-65
2022/02/23 09:19:06;;;;;;;5.93;1.52;;;;;;;19.13;47.48;102531.03;5013240;28;20080;-65
2022/02/23 09:21:31;;;;;;;7.53;1.60;;;;;;;19.15;47.61;102533.59;5013841;28;20030;-65
2022/02/23 09:23:59;;;;;;;7.45;2.00;;;;;;;19.16;47.60;102527.38;5014171;28;20109;-65
2022/02/23 09:26:24;;;;;;;6.13;2.10;;;;;;;19.17;47.85;102526.47;5012877;28;20022;-65
2022/02/23 09:28:49;;;;;;;6.72;1.92;;;;;;;19.16;47.63;102528.22;5014292;28;20022;-66
2022/02/23 09:31:15;;;;;;;8.52;1.60;;;;;;;19.17;47.86;102529.09;5013958;28;20112;-67
2022/02/23 09:33:41;;;;;;;5.70;2.00;;;;;;;19.18;48.09;102530.78;5012861;28;20032;-68
2022/02/23 09:36:10;;;;;;;7.50;1.90;;;;;;;19.18;48.22;102529.00;5013744;28;20113;-67
2022/02/23 09:38:36;;;;;;;5.60;2.10;;;;;;;19.16;47.84;102520.28;5013474;28;20033;-67
2022/02/23 09:41:04;;;;;;;9.10;1.88;;;;;;;19.18;47.90;102515.78;5012870;28;20034;-68
2022/02/23 09:43:30;;;;;;;6.20;1.70;;;;;;;19.16;48.22;102515.00;5013523;28;20021;-67
2022/02/23 09:45:56;;;;;;;7.13;1.85;;;;;;;19.19;48.41;102514.00;5013472;28;20034;-67
2022/02/23 09:48:25;;;;;;;6.53;1.50;;;;;;;19.17;48.08;102508.78;5012520;28;20084;-68
2022/02/23 09:50:52;;;;;;;9.52;2.33;;;;;;;19.19;48.15;102516.63;5013617;28;20034;-67
2022/02/23 09:53:21;;;;;;;7.25;1.90;;;;;;;19.19;48.33;102516.63;5013683;28;20425;-67
2022/02/23 09:55:46;;;;;;;6.97;2.15;;;;;;;19.19;48.34;102514.00;5012827;28;20484;-68
2022/02/23 09:58:11;;;;;;;7.45;1.92;;;;;;;19.17;48.48;102513.25;5013420;28;20030;-67
2022/02/23 10:00:37;;;;;;;8.15;1.90;;;;;;;19.20;48.14;102505.97;5013068;28;20022;-67
2022/02/23 10:03:04;;;;;;;6.80;1.70;;;;;;;19.19;48.47;102519.28;5012573;28;20030;-65
2022/02/23 10:05:37;;;;;;;7.40;1.63;;;;;;;19.20;48.49;102507.75;5012833;28;20018;-65
2022/02/23 10:08:09;;;;;;;6.10;1.75;;;;;;;19.19;48.32;102514.84;5012615;28;20349;-66
2022/02/23 10:10:36;;;;;;;6.90;1.90;;;;;;;19.20;48.82;102502.47;5012940;28;20108;-65
2022/02/23 10:13:05;;;;;;;7.35;1.90;;;;;;;19.20;48.45;102505.97;5013171;28;20048;-65
2022/02/23 10:15:36;;;;;;;5.78;1.90;;;;;;;19.20;48.55;102505.97;5012050;28;20049;-65
2022/02/23 10:18:10;;;;;;;6.38;1.58;;;;;;;19.19;48.74;102500.78;5013368;28;20040;-64
2022/02/23 10:20:39;;;;;;;;;;;;;;;19.18;48.77;102505.22;5013388;28;20119;-65
2022/02/23 10:23:18;;;;;;;7.22;1.70;;;;;;;19.17;48.68;102503.50;5012311;28;20368;-67
2022/02/23 10:25:54;;;;;;;5.88;1.52;;;;;;;19.20;48.96;102505.09;5012839;28;20431;-66
2022/02/23 10:28:23;;;;;;;5.85;1.75;;;;;;;19.19;48.73;102498.97;5013067;28;20037;-66
2022/02/23 10:31:09;;;;;;;7.25;2.03;;;;;;;19.20;48.86;102503.31;5012316;28;20014;-67
2022/02/23 10:33:37;;;;;;;8.23;2.00;;;;;;;19.20;48.99;102502.47;5012757;28;20034;-66
2022/02/23 10:36:11;;;;;;;7.75;2.22;;;;;;;19.19;48.88;102496.31;5012076;28;20034;-66
2022/02/23 10:38:39;;;;;;;8.10;2.00;;;;;;;19.20;48.59;102505.97;5012934;28;20026;-67
2022/02/23 10:41:07;;;;;;;7.10;1.90;;;;;;;19.20;48.64;102500.69;5013031;28;20033;-66
2022/02/23 10:43:35;;;;;;;5.78;1.63;;;;;;;19.20;48.71;102500.69;5011766;28;20030;-66
2022/02/23 10:46:13;;;;;;;7.65;2.00;;;;;;;19.19;48.96;102501.63;5012712;28;20493;-66
2022/02/23 10:48:43;;;;;;;8.60;1.95;;;;;;;19.19;49.44;102504.25;5012493;28;20045;-65
2022/02/23 10:51:14;;;;;;;6.88;1.98;;;;;;;19.19;48.82;102495.50;5012091;28;20026;-65
2022/02/23 10:53:40;;;;;;;6.00;1.70;;;;;;;19.19;49.09;102492.84;5012532;28;20041;-66
2022/02/23 10:56:28;;;;;;;11.15;2.42;;;;;;;19.17;49.31;102482.38;5012345;28;20022;-67
2022/02/23 10:59:02;;;;;;;8.13;1.95;;;;;;;19.19;48.73;102484.91;5012282;28;20524;-66
2022/02/23 11:01:28;;;;;;;;;;;;;;;19.19;49.18;102490.19;5013026;28;20034;-67
2022/02/23 11:03:54;;;;;;;5.90;1.70;;;;;;;19.19;49.13;102479.63;5016659;28;20000;-67
2022/02/23 11:06:23;;;;;;;6.22;1.77;;;;;;;19.20;49.29;102479.53;5015303;28;20430;-65
2022/02/23 11:08:51;;;;;;;7.55;1.67;;;;;;;19.20;49.16;102484.81;5016511;28;20440;-66
2022/02/23 11:11:21;;;;;;;8.18;1.90;;;;;;;19.20;49.23;102479.53;5015908;28;20060;-66
2022/02/23 11:13:48;;;;;;;7.85;2.20;;;;;;;19.20;49.16;102482.19;5016652;28;20022;-67
2022/02/23 11:16:14;;;;;;;7.80;1.83;;;;;;;19.20;49.78;102486.59;5016508;28;20025;-66
2022/02/23 11:18:41;;;;;;;7.30;2.00;;;;;;;19.21;49.23;102490.94;5015548;28;20027;-67
2022/02/23 11:21:10;;;;;;;7.80;1.90;;;;;;;19.20;49.03;102483.97;5016168;28;20026;-67
2022/02/23 11:23:37;;;;;;;8.18;1.98;;;;;;;19.19;49.51;102472.53;5015895;28;20029;-67
2022/02/23 11:26:04;;;;;;;9.73;2.33;;;;;;;19.20;49.24;102484.81;5015387;28;20420;-68
2022/02/23 11:28:35;;;;;;;5.57;1.45;;;;;;;19.20;49.26;102479.53;5015732;28;20045;-67